Time;durP1;ratioP1;P1;durP2;ratioP2;P2;SDS_P1;SDS_P2;PMS_P1;PMS_P2;Temp;Humidity;BMP_temperature;BMP_pressure;BME280_temperature;BME280_humidity;BME280_pressure;Samples;Min_cycle;Max_cycle;Signal;HPM_P1;HPM_P2
2022/03/10 00:00:23;;;;;;;0.60;0.13;;;6.60;99.90;;;;;;4979327;28;20543;-73
2022/03/10 00:02:51;;;;;;;0.50;0.10;;;6.60;99.90;;;;;;4978588;28;20483;-74
2022/03/10 00:05:19;;;;;;;0.60;0.10;;;6.50;99.90;;;;;;4979953;28;20838;-74
2022/03/10 00:07:48;;;;;;;0.60;0.20;;;6.50;99.90;;;;;;4978532;28;20458;-74
2022/03/10 00:10:17;;;;;;;0.60;0.10;;;6.50;99.90;;;;;;4978005;28;20451;-74
2022/03/10 00:12:49;;;;;;;0.60;0.10;;;6.50;99.90;;;;;;4978287;28;20459;-74
2022/03/10 00:15:19;;;;;;;0.50;0.10;;;6.40;99.90;;;;;;4977156;28;20497;-75
2022/03/10 00:17:47;;;;;;;0.60;0.27;;;6.40;99.90;;;;;;4976668;28;20899;-75
2022/03/10 00:20:15;;;;;;;0.53;0.10;;;6.30;99.90;;;;;;4976915;28;20469;-75
2022/03/10 00:22:45;;;;;;;0.50;0.10;;;6.30;99.90;;;;;;4977248;28;20539;-75
2022/03/10 00:25:15;;;;;;;0.50;0.10;;;6.30;99.90;;;;;;4983264;28;20478;-75
2022/03/10 00:27:46;;;;;;;0.60;0.10;;;6.30;99.90;;;;;;4996292;28;20514;-74
2022/03/10 00:30:15;;;;;;;0.60;0.10;;;6.20;99.90;;;;;;4997172;28;20462;-75
2022/03/10 00:32:47;;;;;;;0.60;0.10;;;6.20;99.90;;;;;;4996876;28;20534;-74
2022/03/10 00:35:20;;;;;;;0.50;0.10;;;6.20;99.90;;;;;;4985054;28;20568;-74
2022/03/10 00:37:57;;;;;;;0.60;0.10;;;6.20;99.90;;;;;;4988466;28;20490;-74
2022/03/10 00:40:27;;;;;;;0.50;0.10;;;6.20;99.90;;;;;;4996560;28;20464;-74
2022/03/10 00:42:56;;;;;;;0.60;0.10;;;6.30;99.90;;;;;;4986877;28;21296;-74
2022/03/10 00:45:25;;;;;;;0.50;0.10;;;6.20;99.90;;;;;;4977933;28;21067;-75
2022/03/10 00:47:54;;;;;;;0.50;0.10;;;6.30;99.90;;;;;;4979211;28;20972;-73
2022/03/10 00:50:23;;;;;;;0.50;0.10;;;6.30;99.90;;;;;;4978790;28;20535;-73
2022/03/10 00:52:51;;;;;;;0.50;0.10;;;6.40;99.90;;;;;;4984682;28;20462;-74
2022/03/10 00:55:19;;;;;;;0.60;0.10;;;6.40;99.90;;;;;;4991205;28;20542;-74
2022/03/10 00:57:50;;;;;;;0.60;0.10;;;6.40;99.90;;;;;;4997620;28;20479;-74
2022/03/10 01:00:19;;;;;;;0.60;0.20;;;6.40;99.90;;;;;;4998086;28;20554;-74
2022/03/10 01:02:47;;;;;;;0.50;0.10;;;6.30;99.90;;;;;;4986586;28;20451;-75
2022/03/10 01:05:15;;;;;;;0.50;0.20;;;6.30;99.90;;;;;;4976427;28;20495;-74
2022/03/10 01:07:43;;;;;;;0.50;0.10;;;6.30;99.90;;;;;;4976155;28;20450;-74
2022/03/10 01:10:13;;;;;;;0.60;0.20;;;6.20;99.90;;;;;;4975668;28;20464;-74
2022/03/10 01:12:44;;;;;;;0.50;0.10;;;;;;;;;;4976207;28;20535;-73
2022/03/10 01:15:16;;;;;;;0.60;0.10;;;6.10;99.90;;;;;;4977072;28;20510;-72
2022/03/10 01:17:45;;;;;;;0.60;0.20;;;6.10;99.90;;;;;;4975924;28;20571;-73
2022/03/10 01:20:16;;;;;;;2.10;2.00;;;6.10;99.90;;;;;;4976333;28;20454;-74
2022/03/10 01:22:44;;;;;;;0.50;0.10;;;5.90;99.90;;;;;;4979085;28;20464;-73
2022/03/10 01:25:13;;;;;;;0.70;0.53;;;;;;;;;;4994422;28;20539;-73
2022/03/10 01:27:41;;;;;;;0.60;0.10;;;5.80;99.90;;;;;;5006686;28;20463;-74
2022/03/10 01:30:10;;;;;;;0.60;0.10;;;5.70;99.90;;;;;;5006658;28;20523;-74
2022/03/10 01:32:39;;;;;;;0.60;0.20;;;5.60;99.90;;;;;;4989533;28;20487;-74
2022/03/10 01:35:08;;;;;;;0.53;0.10;;;5.60;99.90;;;;;;4979606;28;20476;-74
2022/03/10 01:37:37;;;;;;;0.50;0.10;;;5.60;99.90;;;;;;4977489;28;20536;-74
2022/03/10 01:40:06;;;;;;;0.53;0.10;;;5.70;99.90;;;;;;4975429;28;20464;-74
2022/03/10 01:42:35;;;;;;;0.60;0.10;;;5.70;99.90;;;;;;4988734;28;20506;-74
2022/03/10 01:45:05;;;;;;;0.50;0.10;;;5.70;99.90;;;;;;4994537;28;20497;-74
2022/03/10 01:47:33;;;;;;;3.13;2.93;;;5.70;99.90;;;;;;4994099;28;20439;-74
2022/03/10 01:50:02;;;;;;;0.50;0.20;;;5.70;99.90;;;;;;4995767;28;20439;-72
2022/03/10 01:52:31;;;;;;;0.60;0.10;;;;;;;;;;4977349;28;20455;-74
2022/03/10 01:54:59;;;;;;;0.60;0.10;;;5.80;99.90;;;;;;4975673;28;20472;-74
2022/03/10 01:57:27;;;;;;;0.50;0.10;;;5.80;99.90;;;;;;4975192;28;20479;-74
2022/03/10 01:59:56;;;;;;;0.60;0.10;;;5.80;99.90;;;;;;4975578;28;20470;-74
2022/03/10 02:02:24;;;;;;;0.60;0.10;;;5.80;99.90;;;;;;4978389;28;20439;-74
2022/03/10 02:04:52;;;;;;;0.57;0.10;;;5.90;99.90;;;;;;4976898;28;20463;-74
2022/03/10 02:10:17;;;;;;;0.50;0.10;;;5.80;99.90;;;;;;4975287;28;21091;-74
2022/03/10 02:12:47;;;;;;;0.60;0.10;;;5.80;99.90;;;;;;4975448;28;20501;-73
2022/03/10 02:18:03;;;;;;;0.93;0.77;;;5.70;99.90;;;;;;4975376;28;20721;-74
2022/03/10 02:20:31;;;;;;;0.50;0.10;;;5.60;99.90;;;;;;4975478;28;20460;-73
2022/03/10 02:23:00;;;;;;;0.60;0.10;;;5.60;99.90;;;;;;4974467;28;20450;-73
2022/03/10 02:25:29;;;;;;;0.60;0.10;;;5.60;99.90;;;;;;4975644;28;20482;-73
2022/03/10 02:27:58;;;;;;;0.60;0.10;;;5.60;99.90;;;;;;4974884;28;20915;-74
2022/03/10 02:30:30;;;;;;;0.60;0.10;;;5.60;99.90;;;;;;4974838;28;20816;-75
2022/03/10 02:32:58;;;;;;;0.60;0.10;;;5.50;99.90;;;;;;4975561;28;20458;-74
2022/03/10 02:35:27;;;;;;;0.50;0.10;;;5.50;99.90;;;;;;4975996;28;20470;-74
2022/03/10 02:37:56;;;;;;;0.60;0.10;;;5.40;99.90;;;;;;4978234;28;20507;-74
2022/03/10 02:40:25;;;;;;;0.60;0.20;;;5.40;99.90;;;;;;4974309;28;20464;-75
2022/03/10 02:43:01;;;;;;;0.50;0.10;;;5.30;99.90;;;;;;5082101;28;21139;-74
2022/03/10 02:45:29;;;;;;;0.50;0.10;;;5.30;99.90;;;;;;5070204;28;20567;-74
2022/03/10 02:47:57;;;;;;;0.50;0.10;;;5.30;99.90;;;;;;5069854;28;20509;-74
2022/03/10 02:50:25;;;;;;;0.50;0.10;;;5.30;99.90;;;;;;5070587;28;20475;-73
2022/03/10 02:52:53;;;;;;;0.50;0.10;;;5.30;99.90;;;;;;5070781;28;20908;-73
2022/03/10 02:55:21;;;;;;;0.50;0.10;;;5.40;99.90;;;;;;5069665;28;20831;-73
2022/03/10 02:57:50;;;;;;;0.60;0.10;;;5.40;99.90;;;;;;5069985;28;20453;-74
2022/03/10 03:00:19;;;;;;;0.50;0.10;;;5.40;99.90;;;;;;5070474;28;20447;-75
2022/03/10 03:02:47;;;;;;;0.50;0.10;;;5.30;99.90;;;;;;5069506;28;20479;-74
2022/03/10 03:05:16;;;;;;;0.50;0.10;;;5.30;99.90;;;;;;5069009;28;21013;-75
2022/03/10 03:07:45;;;;;;;0.50;0.10;;;5.30;99.90;;;;;;5068837;28;20453;-74
2022/03/10 03:10:14;;;;;;;0.50;0.10;;;5.40;99.90;;;;;;5068770;28;20493;-75
2022/03/10 03:12:45;;;;;;;0.50;0.20;;;5.40;99.90;;;;;;5068686;28;20558;-74
2022/03/10 03:15:14;;;;;;;8.00;7.60;;;5.40;99.90;;;;;;5068900;28;20569;-75
2022/03/10 03:17:43;;;;;;;0.50;0.10;;;5.30;99.90;;;;;;5069012;28;20457;-74
2022/03/10 03:20:14;;;;;;;0.50;0.10;;;5.30;99.90;;;;;;5068722;28;20453;-73
2022/03/10 03:22:43;;;;;;;0.50;0.10;;;5.30;99.90;;;;;;5069128;28;20499;-73
2022/03/10 03:25:14;;;;;;;0.50;0.10;;;5.20;99.90;;;;;;5068887;28;20547;-73
2022/03/10 03:27:45;;;;;;;1.00;0.40;;;5.10;99.90;;;;;;5068959;28;20441;-74
2022/03/10 03:30:13;;;;;;;0.50;0.10;;;5.10;99.90;;;;;;5068255;28;20458;-73
2022/03/10 03:32:43;;;;;;;0.50;0.20;;;4.90;99.90;;;;;;5068087;28;20886;-74
2022/03/10 03:35:11;;;;;;;0.53;0.10;;;4.90;99.90;;;;;;5068562;28;20907;-73
2022/03/10 03:37:39;;;;;;;0.80;0.80;;;4.90;99.90;;;;;;5069749;28;20587;-74
2022/03/10 03:40:08;;;;;;;0.50;0.10;;;4.80;99.90;;;;;;5068203;28;20459;-74
2022/03/10 03:42:36;;;;;;;0.57;0.10;;;4.80;99.90;;;;;;5067759;28;21050;-74
2022/03/10 03:45:06;;;;;;;0.50;0.10;;;4.70;99.90;;;;;;5068015;28;20840;-74
2022/03/10 03:47:33;;;;;;;0.50;0.10;;;4.60;99.90;;;;;;5068157;28;21010;-74
2022/03/10 03:50:04;;;;;;;0.50;0.10;;;4.60;99.90;;;;;;5068079;28;20446;-74
2022/03/10 03:52:31;;;;;;;0.50;0.10;;;4.50;99.90;;;;;;5075947;28;20516;-74
2022/03/10 03:55:05;;;;;;;0.50;0.10;;;4.50;99.90;;;;;;5067595;28;20933;-72
2022/03/10 03:57:33;;;;;;;0.80;0.73;;;4.50;99.90;;;;;;5056849;28;20569;-74
2022/03/10 04:00:01;;;;;;;1.37;1.33;;;4.50;99.90;;;;;;5055193;28;20465;-74
2022/03/10 04:02:31;;;;;;;0.57;0.10;;;4.50;99.90;;;;;;5056793;28;20468;-73
2022/03/10 04:04:59;;;;;;;0.50;0.10;;;4.40;99.90;;;;;;5056050;28;20479;-75
2022/03/10 04:07:28;;;;;;;0.50;0.10;;;4.40;99.90;;;;;;5055311;28;20790;-74
2022/03/10 04:09:56;;;;;;;0.50;0.10;;;4.50;99.90;;;;;;5054048;28;20454;-72
2022/03/10 04:12:24;;;;;;;0.50;0.10;;;4.50;99.90;;;;;;5038672;28;20444;-74
2022/03/10 04:14:51;;;;;;;0.50;0.10;;;4.60;99.90;;;;;;5035092;28;20466;-74
2022/03/10 04:17:19;;;;;;;0.50;0.10;;;4.50;99.90;;;;;;5034391;28;20475;-73
2022/03/10 04:19:47;;;;;;;0.60;0.30;;;4.60;99.90;;;;;;5043254;28;20449;-73
2022/03/10 04:22:15;;;;;;;0.70;0.60;;;4.60;99.90;;;;;;5054829;28;20482;-73
2022/03/10 04:24:44;;;;;;;0.70;0.50;;;4.60;99.90;;;;;;5054596;28;20488;-73
2022/03/10 04:27:13;;;;;;;0.50;0.10;;;4.60;99.90;;;;;;5055637;28;21046;-74
2022/03/10 04:29:40;;;;;;;0.50;0.10;;;4.60;99.90;;;;;;5055654;28;20452;-75
2022/03/10 04:32:13;;;;;;;0.50;0.10;;;;;;;;;;5055177;28;20458;-75
2022/03/10 04:34:41;;;;;;;0.50;0.10;;;4.50;99.90;;;;;;5054809;28;20844;-74
2022/03/10 04:37:09;;;;;;;0.50;0.10;;;4.50;99.90;;;;;;5055255;28;20448;-74
2022/03/10 04:39:37;;;;;;;0.50;0.10;;;4.50;99.90;;;;;;5056185;28;20449;-73
2022/03/10 04:42:06;;;;;;;0.60;0.20;;;4.50;99.90;;;;;;5057712;28;20572;-73
2022/03/10 04:44:34;;;;;;;0.50;0.30;;;4.60;99.90;;;;;;5057094;28;20465;-73
2022/03/10 04:47:02;;;;;;;0.50;0.10;;;4.60;99.90;;;;;;5055333;28;20545;-75
2022/03/10 04:49:30;;;;;;;0.50;0.20;;;4.60;99.90;;;;;;5058690;28;20450;-73
2022/03/10 04:51:58;;;;;;;0.50;0.10;;;4.60;99.90;;;;;;5055791;28;20455;-75
2022/03/10 04:54:27;;;;;;;0.50;0.10;;;4.50;99.90;;;;;;5058022;28;20501;-74
2022/03/10 04:56:55;;;;;;;0.60;0.20;;;4.50;99.90;;;;;;5065814;28;20478;-74
2022/03/10 04:59:25;;;;;;;0.50;0.10;;;4.40;99.90;;;;;;5065576;28;20502;-74
2022/03/10 05:01:53;;;;;;;0.50;0.10;;;4.50;99.90;;;;;;5062795;28;20470;-73
2022/03/10 05:04:21;;;;;;;0.50;0.10;;;4.40;99.90;;;;;;5066740;28;20605;-75
2022/03/10 05:06:49;;;;;;;0.50;0.10;;;4.40;99.90;;;;;;5067216;28;20445;-73
2022/03/10 05:09:17;;;;;;;0.50;0.10;;;4.40;99.90;;;;;;5078350;28;20550;-75
2022/03/10 05:11:45;;;;;;;0.50;0.10;;;4.40;99.90;;;;;;5076483;28;20527;-74
2022/03/10 05:14:12;;;;;;;0.50;0.10;;;4.40;99.90;;;;;;5057038;28;20443;-73
2022/03/10 05:16:42;;;;;;;0.50;0.10;;;4.40;99.90;;;;;;5057007;28;20490;-74
2022/03/10 05:19:10;;;;;;;0.50;0.10;;;4.40;99.90;;;;;;5057437;28;20515;-74
2022/03/10 05:21:38;;;;;;;0.50;0.10;;;4.30;99.90;;;;;;5058507;28;20505;-74
2022/03/10 05:24:06;;;;;;;0.50;0.10;;;4.30;99.90;;;;;;5060936;28;20571;-74
2022/03/10 05:26:38;;;;;;;0.60;0.10;;;4.30;99.90;;;;;;5070539;22;20490;-74
2022/03/10 05:29:06;;;;;;;0.50;0.10;;;4.30;99.90;;;;;;5052972;28;20444;-73
2022/03/10 05:31:34;;;;;;;0.50;0.10;;;4.30;99.90;;;;;;5049228;28;20448;-73
2022/03/10 05:34:04;;;;;;;0.50;0.10;;;4.30;99.90;;;;;;5045734;28;20557;-74
2022/03/10 05:36:34;;;;;;;0.50;0.20;;;4.30;99.90;;;;;;5054726;28;20458;-74
2022/03/10 05:39:02;;;;;;;0.50;0.20;;;4.40;99.90;;;;;;5075012;28;20475;-74
2022/03/10 05:41:31;;;;;;;0.83;0.73;;;4.40;99.90;;;;;;5074621;28;20444;-74
2022/03/10 05:43:59;;;;;;;0.60;0.40;;;4.40;99.90;;;;;;5055367;28;20484;-74
2022/03/10 05:46:27;;;;;;;0.50;0.20;;;4.40;99.90;;;;;;5052884;28;20471;-75
2022/03/10 05:48:55;;;;;;;0.50;0.10;;;4.30;99.90;;;;;;5052936;28;20642;-75
2022/03/10 05:51:24;;;;;;;0.50;0.10;;;4.30;99.90;;;;;;5055399;28;20982;-74
2022/03/10 05:53:52;;;;;;;0.50;0.10;;;4.20;99.90;;;;;;5068830;28;20546;-75
2022/03/10 05:56:21;;;;;;;0.50;0.10;;;4.20;99.90;;;;;;5071952;28;20466;-74
2022/03/10 05:58:48;;;;;;;0.50;0.10;;;4.20;99.90;;;;;;5067729;28;20804;-74
2022/03/10 06:01:16;;;;;;;0.50;0.10;;;4.20;99.90;;;;;;5072453;28;20469;-74
2022/03/10 06:03:45;;;;;;;0.60;0.10;;;;;;;;;;5072214;28;20988;-75
2022/03/10 06:06:15;;;;;;;0.50;0.10;;;4.20;99.90;;;;;;5076047;28;20485;-74
2022/03/10 06:08:45;;;;;;;0.60;0.30;;;4.20;99.90;;;;;;5077208;28;20446;-75
2022/03/10 06:11:13;;;;;;;0.50;0.13;;;4.20;99.90;;;;;;5076385;28;20454;-75
2022/03/10 06:13:40;;;;;;;0.50;0.10;;;4.20;99.90;;;;;;5060635;28;20475;-75
2022/03/10 06:16:08;;;;;;;0.50;0.10;;;4.20;99.90;;;;;;5056579;28;20495;-74
2022/03/10 06:18:36;;;;;;;0.50;0.10;;;4.20;99.90;;;;;;5063771;28;20463;-75
2022/03/10 06:21:07;;;;;;;0.50;0.10;;;4.20;99.90;;;;;;5086118;28;20502;-76
2022/03/10 06:23:35;;;;;;;0.50;0.10;;;4.20;99.90;;;;;;5079288;28;20474;-74
2022/03/10 06:26:04;;;;;;;0.50;0.10;;;4.20;99.90;;;;;;5080285;28;20540;-75
2022/03/10 06:28:32;;;;;;;0.50;0.10;;;4.20;99.90;;;;;;5074531;28;20529;-73
2022/03/10 06:31:00;;;;;;;0.50;0.10;;;4.20;99.90;;;;;;5072587;28;20483;-74
2022/03/10 06:33:28;;;;;;;0.50;0.10;;;4.20;99.90;;;;;;5071207;28;20452;-75
2022/03/10 06:35:56;;;;;;;0.50;0.10;;;4.20;99.90;;;;;;5073406;28;20865;-74
2022/03/10 06:38:23;;;;;;;0.50;0.10;;;4.20;99.90;;;;;;5073531;28;20470;-74
2022/03/10 06:40:51;;;;;;;0.50;0.10;;;4.30;99.90;;;;;;5073778;28;20459;-73
2022/03/10 06:43:21;;;;;;;0.50;0.10;;;4.30;99.90;;;;;;5070169;28;20856;-74
2022/03/10 06:45:48;;;;;;;0.50;0.10;;;4.30;99.90;;;;;;5073382;28;20832;-75
2022/03/10 06:48:16;;;;;;;0.50;0.10;;;4.40;99.90;;;;;;5074011;28;20439;-75
2022/03/10 06:50:44;;;;;;;0.57;0.10;;;4.40;99.90;;;;;;5067680;28;20451;-75
2022/03/10 06:53:13;;;;;;;0.50;0.10;;;4.50;99.90;;;;;;5070265;28;20603;-74
2022/03/10 06:55:41;;;;;;;0.50;0.10;;;4.50;99.90;;;;;;5081317;28;20499;-74
2022/03/10 06:58:08;;;;;;;0.50;0.10;;;4.50;99.90;;;;;;5075679;28;20451;-74
2022/03/10 07:00:38;;;;;;;1.80;1.70;;;4.50;99.90;;;;;;5073833;28;20466;-74
2022/03/10 07:03:06;;;;;;;0.50;0.10;;;4.50;99.90;;;;;;5065985;28;20462;-75
2022/03/10 07:05:34;;;;;;;0.50;0.10;;;4.60;99.90;;;;;;5078294;28;20462;-74
2022/03/10 07:08:01;;;;;;;0.50;0.10;;;4.60;99.90;;;;;;5079883;28;20803;-74
2022/03/10 07:10:29;;;;;;;0.50;0.10;;;4.60;99.90;;;;;;5072683;28;20491;-75
2022/03/10 07:12:57;;;;;;;0.50;0.10;;;4.70;99.90;;;;;;5084402;28;20454;-74
2022/03/10 07:15:25;;;;;;;0.50;0.10;;;4.80;99.90;;;;;;5072908;28;20989;-74
2022/03/10 07:17:54;;;;;;;0.60;0.57;;;4.90;99.90;;;;;;5073926;28;20511;-73
2022/03/10 07:20:22;;;;;;;0.50;0.10;;;4.90;99.90;;;;;;5072068;28;20528;-73
2022/03/10 07:22:50;;;;;;;0.50;0.10;;;4.90;99.90;;;;;;5072162;28;20459;-74
2022/03/10 07:25:20;;;;;;;0.50;0.10;;;4.90;99.90;;;;;;5071616;28;20570;-74
2022/03/10 07:27:48;;;;;;;0.50;0.10;;;4.90;99.90;;;;;;5073349;28;20439;-74
2022/03/10 07:30:16;;;;;;;0.53;0.20;;;5.00;99.90;;;;;;5074281;28;20471;-74
2022/03/10 07:32:43;;;;;;;0.50;0.10;;;5.10;99.90;;;;;;5076570;28;20532;-76
2022/03/10 07:35:13;;;;;;;0.50;0.10;;;5.10;99.90;;;;;;5080995;28;20462;-74
2022/03/10 07:37:41;;;;;;;0.50;0.10;;;5.10;99.90;;;;;;5081606;28;20812;-74
2022/03/10 07:40:10;;;;;;;0.60;0.10;;;5.20;99.90;;;;;;5079048;28;20460;-74
2022/03/10 07:42:38;;;;;;;0.50;0.10;;;5.30;99.90;;;;;;5078558;28;20446;-75
2022/03/10 07:45:07;;;;;;;0.50;0.10;;;5.40;99.90;;;;;;5076524;28;20479;-73
2022/03/10 07:47:35;;;;;;;0.97;0.73;;;5.40;99.90;;;;;;5077844;28;20538;-74
2022/03/10 07:50:04;;;;;;;0.50;0.10;;;5.40;99.90;;;;;;5079245;28;20453;-73
2022/03/10 07:52:33;;;;;;;0.50;0.10;;;5.50;99.90;;;;;;5075809;28;20447;-74
2022/03/10 07:55:06;;;;;;;0.50;0.10;;;5.50;99.90;;;;;;5075134;28;20438;-74
2022/03/10 07:57:34;;;;;;;0.60;0.50;;;5.50;99.90;;;;;;5075384;28;20949;-75
2022/03/10 08:00:04;;;;;;;0.50;0.10;;;5.50;99.90;;;;;;5065261;28;20488;-74
2022/03/10 08:02:32;;;;;;;0.60;0.10;;;5.60;99.90;;;;;;5054582;28;20440;-75
2022/03/10 08:05:00;;;;;;;0.50;0.10;;;5.70;99.90;;;;;;5055312;28;20560;-74
2022/03/10 08:07:32;;;;;;;0.50;0.10;;;5.70;99.90;;;;;;5067031;28;20548;-74
2022/03/10 08:10:02;;;;;;;59.53;43.87;;;5.70;99.90;;;;;;5065537;28;20547;-74
2022/03/10 08:12:30;;;;;;;0.60;0.10;;;5.80;99.90;;;;;;5056685;28;20470;-73
2022/03/10 08:14:58;;;;;;;0.60;0.10;;;5.90;99.90;;;;;;5059221;28;20450;-73
2022/03/10 08:17:26;;;;;;;1.23;1.23;;;6.00;99.90;;;;;;5055820;28;20455;-74
2022/03/10 08:19:55;;;;;;;0.53;0.20;;;6.00;99.90;;;;;;5060943;28;20455;-74
2022/03/10 08:22:24;;;;;;;0.60;0.10;;;6.10;99.90;;;;;;5057385;28;20570;-73
2022/03/10 08:24:53;;;;;;;0.50;0.10;;;6.30;99.90;;;;;;5059951;28;20475;-74
2022/03/10 08:27:22;;;;;;;0.50;0.10;;;6.20;99.90;;;;;;5081714;28;20444;-73
2022/03/10 08:29:50;;;;;;;0.50;0.10;;;6.30;99.90;;;;;;5077986;28;20983;-74
2022/03/10 08:32:19;;;;;;;0.60;0.10;;;6.30;99.90;;;;;;5073466;28;20480;-74
2022/03/10 08:34:47;;;;;;;0.60;0.10;;;6.40;99.90;;;;;;5074303;28;20473;-75
2022/03/10 08:37:15;;;;;;;0.50;0.10;;;6.50;99.90;;;;;;5074123;28;20435;-74
2022/03/10 08:39:54;;;;;;;0.50;0.10;;;6.60;99.90;;;;;;5067999;28;20955;-74
2022/03/10 08:42:34;;;;;;;0.50;0.10;;;6.70;99.90;;;;;;5063932;28;20478;-73
2022/03/10 08:45:15;;;;;;;10.30;9.67;;;6.70;99.90;;;;;;5064668;28;21025;-74
2022/03/10 08:48:03;;;;;;;0.60;0.50;;;6.80;99.90;;;;;;5073977;28;20612;-74
2022/03/10 08:50:33;;;;;;;0.60;0.10;;;6.90;99.90;;;;;;5075027;28;20442;-74
2022/03/10 08:53:07;;;;;;;0.60;0.10;;;6.90;99.90;;;;;;5076939;28;20810;-74
2022/03/10 08:55:43;;;;;;;0.60;0.30;;;6.90;99.90;;;;;;5076127;28;20495;-74
2022/03/10 08:58:41;;;;;;;0.50;0.10;;;7.10;99.90;;;;;;5065704;28;20471;-74
2022/03/10 09:01:19;;;;;;;0.60;0.13;;;7.20;99.90;;;;;;5055462;28;20448;-74
2022/03/10 09:04:00;;;;;;;0.60;0.10;;;7.20;99.90;;;;;;5058367;28;20445;-74
2022/03/10 09:06:32;;;;;;;0.50;0.10;;;7.30;99.90;;;;;;5056941;28;20461;-74
2022/03/10 09:09:03;;;;;;;0.60;0.10;;;7.40;99.90;;;;;;5068960;28;20451;-74
2022/03/10 09:11:31;;;;;;;0.50;0.10;;;7.50;99.90;;;;;;5074904;28;20882;-74
2022/03/10 09:14:00;;;;;;;0.60;0.10;;;7.60;99.90;;;;;;5072378;28;20471;-74
2022/03/10 09:16:28;;;;;;;0.60;0.10;;;7.70;99.90;;;;;;5074041;28;20481;-73
2022/03/10 09:18:56;;;;;;;0.53;0.20;;;7.80;99.90;;;;;;5076927;28;20453;-74
2022/03/10 09:21:24;;;;;;;1.07;0.50;;;7.90;99.90;;;;;;5078532;28;20417;-74
2022/03/10 09:23:52;;;;;;;0.60;0.10;;;8.00;99.90;;;;;;5086522;28;20477;-74
2022/03/10 09:26:20;;;;;;;0.60;0.10;;;8.00;99.90;;;;;;5077238;28;20484;-72
2022/03/10 09:28:48;;;;;;;0.60;0.10;;;8.10;99.90;;;;;;5075161;28;20452;-74
2022/03/10 09:31:18;;;;;;;0.60;0.10;;;8.20;99.90;;;;;;5081572;28;20455;-73
2022/03/10 09:33:46;;;;;;;0.60;0.10;;;8.30;99.90;;;;;;5076359;28;20514;-75
2022/03/10 09:36:15;;;;;;;0.60;0.10;;;8.30;99.90;;;;;;5073350;28;20523;-73
2022/03/10 09:38:43;;;;;;;0.60;0.10;;;8.40;99.90;;;;;;5060444;28;20537;-73
2022/03/10 09:41:10;;;;;;;0.60;0.10;;;8.50;99.90;;;;;;5054198;28;20503;-73
2022/03/10 09:43:39;;;;;;;0.60;0.30;;;8.60;99.90;;;;;;5064399;28;20453;-73
2022/03/10 09:46:08;;;;;;;0.60;0.10;;;8.40;99.90;;;;;;5073016;28;20859;-73
2022/03/10 09:48:39;;;;;;;0.60;0.10;;;8.70;99.90;;;;;;5075017;28;20459;-74
2022/03/10 09:51:08;;;;;;;0.60;0.10;;;8.80;99.90;;;;;;5080639;28;20459;-73
2022/03/10 09:53:38;;;;;;;0.70;0.30;;;8.90;99.90;;;;;;5075447;28;20452;-73
2022/03/10 09:56:07;;;;;;;0.60;0.10;;;8.90;99.90;;;;;;5073463;28;20484;-75
2022/03/10 09:58:35;;;;;;;0.60;0.10;;;9.10;99.90;;;;;;5068247;28;20464;-73
2022/03/10 10:01:06;;;;;;;0.60;0.10;;;9.20;99.90;;;;;;5053816;28;20966;-73
2022/03/10 10:03:35;;;;;;;0.60;0.20;;;9.30;99.90;;;;;;5066158;28;20453;-73
2022/03/10 10:06:07;;;;;;;0.80;0.50;;;9.40;99.90;;;;;;5074786;28;20622;-74
2022/03/10 10:08:38;;;;;;;0.60;0.10;;;9.50;99.90;;;;;;5073054;28;20449;-74
2022/03/10 10:11:06;;;;;;;3.60;0.60;;;9.60;99.90;;;;;;5073498;28;20811;-74
2022/03/10 10:13:37;;;;;;;0.60;0.40;;;9.70;99.90;;;;;;5073611;28;20449;-74
2022/03/10 10:16:07;;;;;;;3.80;3.60;;;9.70;99.90;;;;;;5073001;28;20457;-73
2022/03/10 10:18:38;;;;;;;0.60;0.17;;;9.80;99.90;;;;;;5072841;28;20503;-73
2022/03/10 10:21:18;;;;;;;0.60;0.10;;;10.00;99.90;;;;;;5062367;28;20449;-72
2022/03/10 10:23:48;;;;;;;1.50;1.40;;;10.10;99.90;;;;;;5052709;28;21041;-73
2022/03/10 10:26:16;;;;;;;0.60;0.10;;;10.10;99.90;;;;;;5068406;28;20565;-73
2022/03/10 10:28:48;;;;;;;5.17;4.60;;;10.20;99.90;;;;;;5070858;28;20464;-74
2022/03/10 10:31:17;;;;;;;0.60;0.10;;;10.30;99.90;;;;;;5066580;28;20447;-74
2022/03/10 10:33:57;;;;;;;0.60;0.10;;;10.40;99.90;;;;;;5077044;28;20456;-74
2022/03/10 10:36:27;;;;;;;0.60;0.10;;;10.60;99.90;;;;;;5076993;28;20457;-74
2022/03/10 10:38:57;;;;;;;1.13;0.93;;;10.60;99.90;;;;;;5073516;28;20492;-75
2022/03/10 10:41:27;;;;;;;0.60;0.10;;;10.90;99.90;;;;;;5075733;28;20444;-73
2022/03/10 10:43:57;;;;;;;0.60;0.10;;;10.90;99.90;;;;;;5082918;28;20437;-74
2022/03/10 10:46:32;;;;;;;0.60;0.10;;;11.00;99.90;;;;;;5072206;28;20474;-74
2022/03/10 10:49:03;;;;;;;0.73;0.37;;;11.20;99.90;;;;;;5074418;28;20443;-73
2022/03/10 10:51:42;;;;;;;0.60;0.20;;;11.30;99.90;;;;;;5079845;28;20504;-73
2022/03/10 10:54:11;;;;;;;0.60;0.10;;;11.40;99.90;;;;;;5075300;28;20437;-73
2022/03/10 10:56:46;;;;;;;0.60;0.10;;;11.50;99.90;;;;;;5078376;28;20484;-74
2022/03/10 10:59:27;;;;;;;0.60;0.10;;;11.60;99.90;;;;;;5068713;28;20552;-74
2022/03/10 11:02:09;;;;;;;0.60;0.20;;;11.90;99.90;;;;;;5070871;28;20517;-74
2022/03/10 11:04:39;;;;;;;0.60;0.20;;;11.90;99.90;;;;;;5077896;28;20522;-73
2022/03/10 11:07:09;;;;;;;0.60;0.10;;;12.00;99.90;;;;;;5075683;28;20496;-75
2022/03/10 11:09:38;;;;;;;0.60;0.10;;;12.10;99.90;;;;;;5078186;28;20445;-74
2022/03/10 11:12:09;;;;;;;0.60;0.10;;;12.20;99.90;;;;;;5079474;28;20570;-74
2022/03/10 11:14:37;;;;;;;0.60;0.10;;;12.40;99.90;;;;;;5077884;28;20442;-75
2022/03/10 11:17:06;;;;;;;0.60;0.37;;;12.60;99.90;;;;;;5077429;28;20457;-74
2022/03/10 11:19:36;;;;;;;1.37;1.27;;;12.60;99.90;;;;;;5080697;28;20449;-75
2022/03/10 11:22:18;;;;;;;0.70;0.40;;;12.70;99.90;;;;;;5078537;28;20948;-74
2022/03/10 11:24:58;;;;;;;0.60;0.10;;;12.70;99.90;;;;;;5076496;28;20438;-74
2022/03/10 11:27:33;;;;;;;0.60;0.10;;;12.80;99.90;;;;;;5063754;28;20488;-73
2022/03/10 11:30:02;;;;;;;0.60;0.10;;;12.80;99.90;;;;;;5071619;28;20472;-72
2022/03/10 11:32:31;;;;;;;0.60;0.10;;;13.00;99.90;;;;;;5065060;28;20434;-74
2022/03/10 11:35:01;;;;;;;0.60;0.20;;;13.00;99.90;;;;;;5074122;28;20525;-72
2022/03/10 11:37:52;;;;;;;0.80;0.67;;;13.00;99.90;;;;;;5080038;28;20944;-75
2022/03/10 11:40:51;;;;;;;0.60;0.10;;;13.10;99.90;;;;;;5076072;28;20852;-74
2022/03/10 11:43:31;;;;;;;0.60;0.10;;;13.20;99.90;;;;;;5074461;28;20486;-75
2022/03/10 11:46:21;;;;;;;0.60;0.17;;;13.20;99.90;;;;;;5069196;28;20501;-72
2022/03/10 11:49:05;;;;;;;0.70;0.20;;;13.30;99.90;;;;;;5059843;28;20542;-72
2022/03/10 11:51:48;;;;;;;0.60;0.20;;;13.40;99.90;;;;;;5068716;28;20977;-74
2022/03/10 11:54:22;;;;;;;0.60;0.10;;;13.50;99.90;;;;;;5073406;28;20551;-74
2022/03/10 11:57:06;;;;;;;0.60;0.10;;;13.60;99.90;;;;;;5064423;28;20469;-74
2022/03/10 11:59:49;;;;;;;1.30;1.20;;;13.80;99.90;;;;;;5071744;28;20451;-75
2022/03/10 12:02:30;;;;;;;1.03;0.83;;;13.80;99.90;;;;;;5076125;28;20530;-73
2022/03/10 12:05:00;;;;;;;0.60;0.20;;;13.90;99.90;;;;;;5058892;28;20504;-74
2022/03/10 12:07:30;;;;;;;0.60;0.10;;;13.90;99.90;;;;;;5072643;28;20497;-74
2022/03/10 12:10:05;;;;;;;0.60;0.20;;;14.00;99.90;;;;;;5068991;28;20466;-74
2022/03/10 12:12:38;;;;;;;0.60;0.10;;;14.00;99.90;;;;;;5067601;28;20449;-75
2022/03/10 12:15:47;;;;;;;0.60;0.10;;;14.00;99.90;;;;;;5072107;28;20472;-74
2022/03/10 12:18:17;;;;;;;0.60;0.20;;;14.10;99.90;;;;;;5075107;28;20453;-74
2022/03/10 12:20:49;;;;;;;0.60;0.20;;;14.10;99.90;;;;;;5075522;28;20444;-73
2022/03/10 12:23:19;;;;;;;0.60;0.10;;;14.20;99.90;;;;;;5069927;28;21105;-74
2022/03/10 12:25:52;;;;;;;0.60;0.10;;;14.30;99.90;;;;;;5073910;28;20482;-74
2022/03/10 12:28:30;;;;;;;0.60;0.10;;;14.30;99.90;;;;;;5073955;28;20435;-73
2022/03/10 12:31:14;;;;;;;0.60;0.10;;;14.30;99.90;;;;;;5074509;28;20453;-74
2022/03/10 12:33:50;;;;;;;0.70;0.40;;;14.40;99.90;;;;;;5070579;28;20473;-72
2022/03/10 12:36:33;;;;;;;0.60;0.20;;;14.50;99.90;;;;;;5074467;28;20477;-72
2022/03/10 12:39:04;;;;;;;0.60;0.10;;;14.50;99.90;;;;;;5074882;28;20447;-73
2022/03/10 12:41:36;;;;;;;0.60;0.10;;;14.50;99.90;;;;;;5076136;28;20444;-75
2022/03/10 12:44:06;;;;;;;0.60;0.10;;;14.50;99.90;;;;;;5074661;28;20874;-74
2022/03/10 12:46:36;;;;;;;0.60;0.10;;;14.50;99.90;;;;;;5074278;28;20472;-74
2022/03/10 12:49:06;;;;;;;1.07;0.97;;;14.50;99.90;;;;;;5074228;28;20568;-73
2022/03/10 12:51:36;;;;;;;0.60;0.10;;;14.60;99.90;;;;;;5074536;28;20801;-74
2022/03/10 12:54:05;;;;;;;0.60;0.10;;;14.60;99.90;;;;;;5074092;28;20460;-73
2022/03/10 12:56:46;;;;;;;0.60;0.10;;;14.70;99.90;;;;;;5070777;28;20530;-73
2022/03/10 12:59:15;;;;;;;2.90;1.53;;;14.70;99.90;;;;;;5073245;28;20513;-75
2022/03/10 13:01:43;;;;;;;0.60;0.17;;;14.70;99.90;;;;;;5074832;28;20454;-74
2022/03/10 13:04:14;;;;;;;0.60;0.10;;;14.80;99.90;;;;;;5074320;28;20864;-72
2022/03/10 13:06:42;;;;;;;0.60;0.20;;;14.80;99.90;;;;;;5082936;28;20525;-73
2022/03/10 13:09:10;;;;;;;3.10;3.00;;;14.80;99.90;;;;;;5074009;28;20541;-73
2022/03/10 13:11:39;;;;;;;0.60;0.10;;;14.90;99.90;;;;;;5074324;28;20456;-74
2022/03/10 13:14:15;;;;;;;0.60;0.10;;;15.00;99.90;;;;;;5074066;28;20450;-75
2022/03/10 13:16:45;;;;;;;0.60;0.10;;;15.00;99.90;;;;;;5073137;28;20461;-75